sensor_id;sensor_type;location;lat;lon;timestamp;P1;durP1;ratioP1;P2;durP2;ratioP2
63772;SDS011;49919;53.612;55.898;2022-09-17T00:00:15;12.13;;;8.35;;
63772;SDS011;49919;53.612;55.898;2022-09-17T00:01:47;8.82;;;8.13;;
63772;SDS011;49919;53.612;55.898;2022-09-17T00:03:18;9.15;;;8.23;;
63772;SDS011;49919;53.612;55.898;2022-09-17T00:04:48;10.05;;;8.32;;
63772;SDS011;49919;53.612;55.898;2022-09-17T00:06:20;11.57;;;8.45;;
63772;SDS011;49919;53.612;55.898;2022-09-17T00:07:52;9.18;;;8.38;;
63772;SDS011;49919;53.612;55.898;2022-09-17T00:09:23;8.93;;;8.20;;
63772;SDS011;49919;53.612;55.898;2022-09-17T00:10:53;9.40;;;8.27;;
63772;SDS011;49919;53.612;55.898;2022-09-17T00:12:24;9.68;;;8.68;;
63772;SDS011;49919;53.612;55.898;2022-09-17T00:13:57;9.32;;;8.45;;
63772;SDS011;49919;53.612;55.898;2022-09-17T00:15:32;9.23;;;8.40;;
63772;SDS011;49919;53.612;55.898;2022-09-17T00:17:08;8.02;;;7.38;;
63772;SDS011;49919;53.612;55.898;2022-09-17T00:18:39;8.90;;;8.00;;
63772;SDS011;49919;53.612;55.898;2022-09-17T00:20:11;8.73;;;7.90;;
63772;SDS011;49919;53.612;55.898;2022-09-17T00:21:42;8.63;;;7.82;;
63772;SDS011;49919;53.612;55.898;2022-09-17T00:23:14;8.82;;;7.85;;
63772;SDS011;49919;53.612;55.898;2022-09-17T00:24:44;9.48;;;7.30;;
63772;SDS011;49919;53.612;55.898;2022-09-17T00:26:16;9.63;;;7.85;;
63772;SDS011;49919;53.612;55.898;2022-09-17T00:27:47;9.27;;;7.70;;
63772;SDS011;49919;53.612;55.898;2022-09-17T00:29:18;8.77;;;7.20;;
63772;SDS011;49919;53.612;55.898;2022-09-17T00:30:48;8.25;;;7.45;;
63772;SDS011;49919;53.612;55.898;2022-09-17T00:32:19;9.35;;;8.40;;
63772;SDS011;49919;53.612;55.898;2022-09-17T00:33:50;10.88;;;7.57;;
63772;SDS011;49919;53.612;55.898;2022-09-17T00:35:25;8.98;;;8.18;;
63772;SDS011;49919;53.612;55.898;2022-09-17T00:36:57;8.43;;;7.63;;
63772;SDS011;49919;53.612;55.898;2022-09-17T00:38:28;9.68;;;8.68;;
63772;SDS011;49919;53.612;55.898;2022-09-17T00:39:59;8.82;;;8.13;;
63772;SDS011;49919;53.612;55.898;2022-09-17T00:41:30;8.95;;;8.20;;
63772;SDS011;49919;53.612;55.898;2022-09-17T00:43:03;9.82;;;7.68;;
63772;SDS011;49919;53.612;55.898;2022-09-17T00:44:38;8.73;;;7.57;;
63772;SDS011;49919;53.612;55.898;2022-09-17T00:48:02;8.00;;;7.40;;
63772;SDS011;49919;53.612;55.898;2022-09-17T00:49:34;9.57;;;8.10;;
63772;SDS011;49919;53.612;55.898;2022-09-17T00:51:05;9.93;;;7.65;;
63772;SDS011;49919;53.612;55.898;2022-09-17T00:52:45;8.48;;;7.72;;
63772;SDS011;49919;53.612;55.898;2022-09-17T00:54:20;9.05;;;8.25;;
63772;SDS011;49919;53.612;55.898;2022-09-17T00:55:55;12.43;;;8.23;;
63772;SDS011;49919;53.612;55.898;2022-09-17T00:57:30;9.43;;;8.15;;
63772;SDS011;49919;53.612;55.898;2022-09-17T00:59:01;9.30;;;8.50;;
63772;SDS011;49919;53.612;55.898;2022-09-17T01:00:33;9.38;;;8.43;;
63772;SDS011;49919;53.612;55.898;2022-09-17T01:02:04;9.30;;;8.07;;
63772;SDS011;49919;53.612;55.898;2022-09-17T01:03:35;8.63;;;7.68;;
63772;SDS011;49919;53.612;55.898;2022-09-17T01:05:06;9.07;;;8.38;;
63772;SDS011;49919;53.612;55.898;2022-09-17T01:06:48;9.73;;;8.82;;
63772;SDS011;49919;53.612;55.898;2022-09-17T01:16:15;8.88;;;8.07;;
63772;SDS011;49919;53.612;55.898;2022-09-17T01:22:12;8.90;;;8.07;;
63772;SDS011;49919;53.612;55.898;2022-09-17T01:24:03;9.38;;;8.45;;
63772;SDS011;49919;53.612;55.898;2022-09-17T01:27:45;8.68;;;7.90;;
63772;SDS011;49919;53.612;55.898;2022-09-17T01:32:04;9.20;;;8.13;;
63772;SDS011;49919;53.612;55.898;2022-09-17T01:37:32;10.23;;;9.32;;
63772;SDS011;49919;53.612;55.898;2022-09-17T01:43:06;9.38;;;8.05;;
63772;SDS011;49919;53.612;55.898;2022-09-17T01:46:23;9.30;;;8.40;;
63772;SDS011;49919;53.612;55.898;2022-09-17T01:48:09;10.13;;;9.23;;
63772;SDS011;49919;53.612;55.898;2022-09-17T01:49:42;9.38;;;8.48;;
63772;SDS011;49919;53.612;55.898;2022-09-17T01:51:21;9.60;;;8.82;;
63772;SDS011;49919;53.612;55.898;2022-09-17T01:52:54;13.63;;;9.38;;
63772;SDS011;49919;53.612;55.898;2022-09-17T01:54:28;10.25;;;9.35;;
63772;SDS011;49919;53.612;55.898;2022-09-17T01:56:03;9.13;;;8.10;;
63772;SDS011;49919;53.612;55.898;2022-09-17T01:57:46;9.20;;;8.40;;
63772;SDS011;49919;53.612;55.898;2022-09-17T01:59:24;9.80;;;8.82;;
63772;SDS011;49919;53.612;55.898;2022-09-17T02:01:04;11.77;;;9.30;;
63772;SDS011;49919;53.612;55.898;2022-09-17T02:04:25;11.75;;;9.85;;
63772;SDS011;49919;53.612;55.898;2022-09-17T02:06:07;9.80;;;8.88;;
63772;SDS011;49919;53.612;55.898;2022-09-17T02:07:46;10.32;;;9.35;;
63772;SDS011;49919;53.612;55.898;2022-09-17T02:09:26;11.32;;;10.27;;
63772;SDS011;49919;53.612;55.898;2022-09-17T02:11:08;10.80;;;9.90;;
63772;SDS011;49919;53.612;55.898;2022-09-17T02:12:42;10.13;;;9.25;;
63772;SDS011;49919;53.612;55.898;2022-09-17T02:14:20;10.55;;;9.75;;
63772;SDS011;49919;53.612;55.898;2022-09-17T02:15:58;10.98;;;9.85;;
63772;SDS011;49919;53.612;55.898;2022-09-17T02:17:54;11.68;;;9.68;;
63772;SDS011;49919;53.612;55.898;2022-09-17T02:19:33;11.15;;;9.80;;
63772;SDS011;49919;53.612;55.898;2022-09-17T02:21:11;11.68;;;9.70;;
63772;SDS011;49919;53.612;55.898;2022-09-17T02:22:53;10.80;;;9.98;;
63772;SDS011;49919;53.612;55.898;2022-09-17T02:24:37;11.20;;;10.15;;
63772;SDS011;49919;53.612;55.898;2022-09-17T02:26:20;11.45;;;10.18;;
63772;SDS011;49919;53.612;55.898;2022-09-17T02:29:44;11.82;;;10.82;;
63772;SDS011;49919;53.612;55.898;2022-09-17T02:31:15;11.48;;;10.48;;
63772;SDS011;49919;53.612;55.898;2022-09-17T02:32:46;11.57;;;10.57;;
63772;SDS011;49919;53.612;55.898;2022-09-17T02:34:18;12.18;;;10.82;;
63772;SDS011;49919;53.612;55.898;2022-09-17T02:35:49;12.05;;;10.95;;
63772;SDS011;49919;53.612;55.898;2022-09-17T02:37:20;12.68;;;11.57;;
63772;SDS011;49919;53.612;55.898;2022-09-17T02:38:57;13.68;;;12.38;;
63772;SDS011;49919;53.612;55.898;2022-09-17T02:40:34;16.90;;;12.75;;
63772;SDS011;49919;53.612;55.898;2022-09-17T02:47:18;15.07;;;13.75;;
63772;SDS011;49919;53.612;55.898;2022-09-17T02:57:08;16.52;;;14.80;;
63772;SDS011;49919;53.612;55.898;2022-09-17T03:01:06;16.98;;;15.30;;
63772;SDS011;49919;53.612;55.898;2022-09-17T03:04:48;15.48;;;13.98;;
63772;SDS011;49919;53.612;55.898;2022-09-17T03:06:20;15.23;;;12.93;;
63772;SDS011;49919;53.612;55.898;2022-09-17T03:07:55;14.43;;;13.05;;
63772;SDS011;49919;53.612;55.898;2022-09-17T03:09:28;13.30;;;11.95;;
63772;SDS011;49919;53.612;55.898;2022-09-17T03:10:59;11.88;;;10.75;;
63772;SDS011;49919;53.612;55.898;2022-09-17T03:12:30;12.23;;;11.02;;
63772;SDS011;49919;53.612;55.898;2022-09-17T03:14:01;11.50;;;10.50;;
63772;SDS011;49919;53.612;55.898;2022-09-17T03:15:32;12.45;;;11.15;;
63772;SDS011;49919;53.612;55.898;2022-09-17T03:17:03;11.35;;;10.45;;
63772;SDS011;49919;53.612;55.898;2022-09-17T03:18:34;10.23;;;9.32;;
63772;SDS011;49919;53.612;55.898;2022-09-17T03:20:05;10.05;;;9.25;;
63772;SDS011;49919;53.612;55.898;2022-09-17T03:21:36;8.98;;;8.38;;
63772;SDS011;49919;53.612;55.898;2022-09-17T03:23:07;9.70;;;9.00;;
63772;SDS011;49919;53.612;55.898;2022-09-17T03:24:38;10.25;;;9.25;;
63772;SDS011;49919;53.612;55.898;2022-09-17T03:26:09;10.50;;;9.60;;
63772;SDS011;49919;53.612;55.898;2022-09-17T03:27:40;10.18;;;9.45;;
63772;SDS011;49919;53.612;55.898;2022-09-17T03:29:11;11.30;;;10.30;;
63772;SDS011;49919;53.612;55.898;2022-09-17T03:30:44;14.48;;;13.07;;
63772;SDS011;49919;53.612;55.898;2022-09-17T03:32:16;19.30;;;15.57;;
63772;SDS011;49919;53.612;55.898;2022-09-17T03:33:46;23.15;;;18.77;;
63772;SDS011;49919;53.612;55.898;2022-09-17T03:35:17;26.63;;;22.98;;
63772;SDS011;49919;53.612;55.898;2022-09-17T03:36:48;31.92;;;25.20;;
63772;SDS011;49919;53.612;55.898;2022-09-17T03:38:19;34.28;;;25.60;;
63772;SDS011;49919;53.612;55.898;2022-09-17T03:39:51;35.15;;;27.33;;
63772;SDS011;49919;53.612;55.898;2022-09-17T03:41:22;41.85;;;29.33;;
63772;SDS011;49919;53.612;55.898;2022-09-17T03:42:53;36.00;;;29.02;;
63772;SDS011;49919;53.612;55.898;2022-09-17T03:44:24;37.83;;;31.42;;
63772;SDS011;49919;53.612;55.898;2022-09-17T03:45:55;34.90;;;27.33;;
63772;SDS011;49919;53.612;55.898;2022-09-17T03:47:25;34.30;;;28.23;;
63772;SDS011;49919;53.612;55.898;2022-09-17T03:48:56;32.95;;;26.13;;
63772;SDS011;49919;53.612;55.898;2022-09-17T03:50:27;28.25;;;24.88;;
63772;SDS011;49919;53.612;55.898;2022-09-17T03:51:58;24.70;;;21.58;;
63772;SDS011;49919;53.612;55.898;2022-09-17T03:53:29;29.80;;;23.27;;
63772;SDS011;49919;53.612;55.898;2022-09-17T03:55:01;31.13;;;23.30;;
63772;SDS011;49919;53.612;55.898;2022-09-17T03:56:33;30.90;;;24.02;;
63772;SDS011;49919;53.612;55.898;2022-09-17T03:58:04;31.65;;;24.15;;
63772;SDS011;49919;53.612;55.898;2022-09-17T03:59:36;33.67;;;25.50;;
63772;SDS011;49919;53.612;55.898;2022-09-17T04:01:07;32.65;;;23.98;;
63772;SDS011;49919;53.612;55.898;2022-09-17T04:02:37;33.17;;;22.90;;
63772;SDS011;49919;53.612;55.898;2022-09-17T04:04:08;37.22;;;24.77;;
63772;SDS011;49919;53.612;55.898;2022-09-17T04:05:39;31.48;;;24.30;;
63772;SDS011;49919;53.612;55.898;2022-09-17T04:07:10;34.28;;;24.55;;
63772;SDS011;49919;53.612;55.898;2022-09-17T04:08:41;29.25;;;20.95;;
63772;SDS011;49919;53.612;55.898;2022-09-17T04:10:13;27.52;;;21.25;;
63772;SDS011;49919;53.612;55.898;2022-09-17T04:11:44;32.78;;;21.90;;
63772;SDS011;49919;53.612;55.898;2022-09-17T04:13:15;29.02;;;21.42;;
63772;SDS011;49919;53.612;55.898;2022-09-17T04:14:47;30.35;;;22.00;;
63772;SDS011;49919;53.612;55.898;2022-09-17T04:16:18;23.48;;;17.98;;
63772;SDS011;49919;53.612;55.898;2022-09-17T04:17:49;26.35;;;18.80;;
63772;SDS011;49919;53.612;55.898;2022-09-17T04:19:20;19.85;;;16.13;;
63772;SDS011;49919;53.612;55.898;2022-09-17T04:20:51;15.35;;;13.27;;
63772;SDS011;49919;53.612;55.898;2022-09-17T04:22:22;11.90;;;10.35;;
63772;SDS011;49919;53.612;55.898;2022-09-17T04:23:54;11.13;;;10.00;;
63772;SDS011;49919;53.612;55.898;2022-09-17T04:25:24;7.50;;;6.90;;
63772;SDS011;49919;53.612;55.898;2022-09-17T04:26:55;10.45;;;8.23;;
63772;SDS011;49919;53.612;55.898;2022-09-17T04:28:26;7.70;;;7.10;;
63772;SDS011;49919;53.612;55.898;2022-09-17T04:29:57;8.40;;;7.65;;
63772;SDS011;49919;53.612;55.898;2022-09-17T04:31:28;7.43;;;6.82;;
63772;SDS011;49919;53.612;55.898;2022-09-17T04:32:59;7.82;;;7.13;;
63772;SDS011;49919;53.612;55.898;2022-09-17T04:34:30;6.95;;;6.45;;
63772;SDS011;49919;53.612;55.898;2022-09-17T04:36:01;6.18;;;5.78;;
63772;SDS011;49919;53.612;55.898;2022-09-17T04:37:33;5.80;;;5.40;;
63772;SDS011;49919;53.612;55.898;2022-09-17T04:39:04;5.47;;;5.15;;
63772;SDS011;49919;53.612;55.898;2022-09-17T04:40:34;5.47;;;4.97;;
63772;SDS011;49919;53.612;55.898;2022-09-17T04:42:06;5.28;;;4.97;;
63772;SDS011;49919;53.612;55.898;2022-09-17T04:43:40;5.38;;;5.07;;
63772;SDS011;49919;53.612;55.898;2022-09-17T04:45:11;5.47;;;5.07;;
63772;SDS011;49919;53.612;55.898;2022-09-17T04:46:42;5.43;;;5.13;;
63772;SDS011;49919;53.612;55.898;2022-09-17T04:48:14;6.25;;;5.07;;
63772;SDS011;49919;53.612;55.898;2022-09-17T04:49:44;4.82;;;4.53;;
63772;SDS011;49919;53.612;55.898;2022-09-17T04:51:15;5.28;;;4.80;;
63772;SDS011;49919;53.612;55.898;2022-09-17T04:52:46;4.50;;;4.20;;
63772;SDS011;49919;53.612;55.898;2022-09-17T04:54:18;5.10;;;4.25;;
63772;SDS011;49919;53.612;55.898;2022-09-17T04:55:49;3.90;;;3.47;;
63772;SDS011;49919;53.612;55.898;2022-09-17T04:57:19;4.18;;;3.35;;
63772;SDS011;49919;53.612;55.898;2022-09-17T04:58:50;9.32;;;8.52;;
63772;SDS011;49919;53.612;55.898;2022-09-17T05:00:22;3.90;;;3.60;;
63772;SDS011;49919;53.612;55.898;2022-09-17T05:01:53;4.00;;;3.70;;
63772;SDS011;49919;53.612;55.898;2022-09-17T05:03:24;3.60;;;3.40;;
63772;SDS011;49919;53.612;55.898;2022-09-17T05:04:55;3.65;;;3.40;;
63772;SDS011;49919;53.612;55.898;2022-09-17T05:06:26;3.85;;;3.60;;
63772;SDS011;49919;53.612;55.898;2022-09-17T05:07:57;3.67;;;3.35;;
63772;SDS011;49919;53.612;55.898;2022-09-17T05:09:28;3.42;;;3.22;;
63772;SDS011;49919;53.612;55.898;2022-09-17T05:10:59;3.78;;;3.58;;
63772;SDS011;49919;53.612;55.898;2022-09-17T05:12:30;4.22;;;3.92;;
63772;SDS011;49919;53.612;55.898;2022-09-17T05:14:01;3.88;;;3.58;;
63772;SDS011;49919;53.612;55.898;2022-09-17T05:15:32;5.57;;;4.03;;
63772;SDS011;49919;53.612;55.898;2022-09-17T05:17:03;4.05;;;3.75;;
63772;SDS011;49919;53.612;55.898;2022-09-17T05:18:34;4.00;;;3.70;;
63772;SDS011;49919;53.612;55.898;2022-09-17T05:20:04;3.42;;;3.22;;
63772;SDS011;49919;53.612;55.898;2022-09-17T05:21:36;3.60;;;3.40;;
63772;SDS011;49919;53.612;55.898;2022-09-17T05:23:06;3.50;;;3.30;;
63772;SDS011;49919;53.612;55.898;2022-09-17T05:24:37;3.40;;;3.00;;
63772;SDS011;49919;53.612;55.898;2022-09-17T05:26:09;3.33;;;3.13;;
63772;SDS011;49919;53.612;55.898;2022-09-17T05:27:40;4.45;;;3.30;;
63772;SDS011;49919;53.612;55.898;2022-09-17T05:29:11;3.50;;;3.25;;
63772;SDS011;49919;53.612;55.898;2022-09-17T05:30:42;2.97;;;2.78;;
63772;SDS011;49919;53.612;55.898;2022-09-17T05:32:13;3.58;;;3.17;;
63772;SDS011;49919;53.612;55.898;2022-09-17T05:33:43;3.00;;;2.80;;
63772;SDS011;49919;53.612;55.898;2022-09-17T05:35:14;3.42;;;3.22;;
63772;SDS011;49919;53.612;55.898;2022-09-17T05:36:46;3.25;;;3.00;;
63772;SDS011;49919;53.612;55.898;2022-09-17T05:38:16;3.55;;;3.25;;
63772;SDS011;49919;53.612;55.898;2022-09-17T05:39:48;3.25;;;3.05;;
63772;SDS011;49919;53.612;55.898;2022-09-17T05:41:19;4.15;;;3.85;;
63772;SDS011;49919;53.612;55.898;2022-09-17T05:42:50;4.10;;;3.80;;
63772;SDS011;49919;53.612;55.898;2022-09-17T05:44:20;3.88;;;3.67;;
63772;SDS011;49919;53.612;55.898;2022-09-17T05:45:53;3.80;;;3.60;;
63772;SDS011;49919;53.612;55.898;2022-09-17T05:47:24;3.60;;;3.40;;
63772;SDS011;49919;53.612;55.898;2022-09-17T05:48:55;3.97;;;3.65;;
63772;SDS011;49919;53.612;55.898;2022-09-17T05:50:27;6.45;;;3.90;;
63772;SDS011;49919;53.612;55.898;2022-09-17T05:51:59;3.90;;;3.60;;
63772;SDS011;49919;53.612;55.898;2022-09-17T05:53:33;4.13;;;3.83;;
63772;SDS011;49919;53.612;55.898;2022-09-17T05:55:04;4.10;;;3.90;;
63772;SDS011;49919;53.612;55.898;2022-09-17T05:56:35;4.63;;;3.80;;
63772;SDS011;49919;53.612;55.898;2022-09-17T05:58:13;3.95;;;3.75;;
63772;SDS011;49919;53.612;55.898;2022-09-17T05:59:51;4.90;;;4.50;;
63772;SDS011;49919;53.612;55.898;2022-09-17T06:01:24;4.70;;;4.25;;
63772;SDS011;49919;53.612;55.898;2022-09-17T06:02:55;4.95;;;4.47;;
63772;SDS011;49919;53.612;55.898;2022-09-17T06:04:27;4.47;;;4.18;;
63772;SDS011;49919;53.612;55.898;2022-09-17T06:05:58;4.95;;;4.55;;
63772;SDS011;49919;53.612;55.898;2022-09-17T06:07:30;4.43;;;4.05;;
63772;SDS011;49919;53.612;55.898;2022-09-17T06:09:01;5.60;;;5.20;;
63772;SDS011;49919;53.612;55.898;2022-09-17T06:10:34;5.68;;;5.28;;
63772;SDS011;49919;53.612;55.898;2022-09-17T06:12:06;6.15;;;5.65;;
63772;SDS011;49919;53.612;55.898;2022-09-17T06:13:37;6.55;;;5.50;;
63772;SDS011;49919;53.612;55.898;2022-09-17T06:15:08;6.60;;;6.00;;
63772;SDS011;49919;53.612;55.898;2022-09-17T06:16:44;6.07;;;5.68;;
63772;SDS011;49919;53.612;55.898;2022-09-17T06:18:18;5.40;;;5.00;;
63772;SDS011;49919;53.612;55.898;2022-09-17T06:19:49;6.72;;;6.30;;
63772;SDS011;49919;53.612;55.898;2022-09-17T06:21:20;7.20;;;6.63;;
63772;SDS011;49919;53.612;55.898;2022-09-17T06:22:55;7.10;;;6.60;;
63772;SDS011;49919;53.612;55.898;2022-09-17T06:24:27;7.43;;;6.88;;
63772;SDS011;49919;53.612;55.898;2022-09-17T06:25:58;7.82;;;6.43;;
63772;SDS011;49919;53.612;55.898;2022-09-17T06:27:30;8.85;;;6.95;;
63772;SDS011;49919;53.612;55.898;2022-09-17T06:29:02;7.28;;;6.57;;
63772;SDS011;49919;53.612;55.898;2022-09-17T06:30:36;6.75;;;6.35;;
63772;SDS011;49919;53.612;55.898;2022-09-17T06:32:08;6.60;;;6.15;;
63772;SDS011;49919;53.612;55.898;2022-09-17T06:33:44;7.05;;;6.45;;
63772;SDS011;49919;53.612;55.898;2022-09-17T06:35:17;7.63;;;7.13;;
63772;SDS011;49919;53.612;55.898;2022-09-17T06:36:48;7.28;;;6.57;;
63772;SDS011;49919;53.612;55.898;2022-09-17T06:38:19;7.60;;;6.50;;
63772;SDS011;49919;53.612;55.898;2022-09-17T06:39:50;7.57;;;6.88;;
63772;SDS011;49919;53.612;55.898;2022-09-17T06:41:21;7.35;;;6.75;;
63772;SDS011;49919;53.612;55.898;2022-09-17T06:42:55;7.88;;;7.30;;
63772;SDS011;49919;53.612;55.898;2022-09-17T06:44:28;7.60;;;7.00;;
63772;SDS011;49919;53.612;55.898;2022-09-17T06:46:00;8.27;;;7.68;;
63772;SDS011;49919;53.612;55.898;2022-09-17T06:47:32;7.70;;;7.20;;
63772;SDS011;49919;53.612;55.898;2022-09-17T06:49:02;7.88;;;7.28;;
63772;SDS011;49919;53.612;55.898;2022-09-17T06:50:33;8.32;;;7.80;;
63772;SDS011;49919;53.612;55.898;2022-09-17T06:52:04;8.57;;;7.97;;
63772;SDS011;49919;53.612;55.898;2022-09-17T06:53:35;8.75;;;7.82;;
63772;SDS011;49919;53.612;55.898;2022-09-17T06:55:07;7.97;;;7.38;;
63772;SDS011;49919;53.612;55.898;2022-09-17T06:56:38;9.25;;;8.40;;
63772;SDS011;49919;53.612;55.898;2022-09-17T06:58:09;9.60;;;8.90;;
63772;SDS011;49919;53.612;55.898;2022-09-17T06:59:40;9.57;;;8.98;;
63772;SDS011;49919;53.612;55.898;2022-09-17T07:01:12;10.05;;;9.25;;
63772;SDS011;49919;53.612;55.898;2022-09-17T07:02:53;10.63;;;9.90;;
63772;SDS011;49919;53.612;55.898;2022-09-17T07:04:25;11.80;;;10.77;;
63772;SDS011;49919;53.612;55.898;2022-09-17T07:05:56;10.93;;;10.10;;
63772;SDS011;49919;53.612;55.898;2022-09-17T07:07:27;11.52;;;10.52;;
63772;SDS011;49919;53.612;55.898;2022-09-17T07:08:58;11.50;;;10.75;;
63772;SDS011;49919;53.612;55.898;2022-09-17T07:10:30;15.40;;;14.20;;
63772;SDS011;49919;53.612;55.898;2022-09-17T07:12:05;13.32;;;12.13;;
63772;SDS011;49919;53.612;55.898;2022-09-17T07:13:37;13.40;;;12.30;;
63772;SDS011;49919;53.612;55.898;2022-09-17T07:15:08;12.82;;;11.82;;
63772;SDS011;49919;53.612;55.898;2022-09-17T07:16:45;15.18;;;13.88;;
63772;SDS011;49919;53.612;55.898;2022-09-17T07:18:16;13.27;;;12.13;;
63772;SDS011;49919;53.612;55.898;2022-09-17T07:19:49;14.20;;;13.20;;
63772;SDS011;49919;53.612;55.898;2022-09-17T07:21:20;15.63;;;14.15;;
63772;SDS011;49919;53.612;55.898;2022-09-17T07:22:55;15.20;;;13.90;;
63772;SDS011;49919;53.612;55.898;2022-09-17T07:24:26;16.42;;;15.02;;
63772;SDS011;49919;53.612;55.898;2022-09-17T07:25:58;16.00;;;14.60;;
63772;SDS011;49919;53.612;55.898;2022-09-17T07:27:31;16.30;;;14.63;;
63772;SDS011;49919;53.612;55.898;2022-09-17T07:29:02;17.17;;;15.57;;
63772;SDS011;49919;53.612;55.898;2022-09-17T07:30:33;19.17;;;17.17;;
63772;SDS011;49919;53.612;55.898;2022-09-17T07:32:04;18.40;;;16.60;;
63772;SDS011;49919;53.612;55.898;2022-09-17T07:33:35;18.40;;;16.70;;
63772;SDS011;49919;53.612;55.898;2022-09-17T07:35:07;18.55;;;16.85;;
63772;SDS011;49919;53.612;55.898;2022-09-17T07:36:38;19.42;;;17.55;;
63772;SDS011;49919;53.612;55.898;2022-09-17T07:38:09;19.02;;;17.13;;
63772;SDS011;49919;53.612;55.898;2022-09-17T07:39:40;20.65;;;18.77;;
63772;SDS011;49919;53.612;55.898;2022-09-17T07:41:12;20.35;;;18.45;;
63772;SDS011;49919;53.612;55.898;2022-09-17T07:42:44;19.55;;;17.67;;
63772;SDS011;49919;53.612;55.898;2022-09-17T07:44:15;19.58;;;17.42;;
63772;SDS011;49919;53.612;55.898;2022-09-17T07:45:46;18.08;;;16.38;;
63772;SDS011;49919;53.612;55.898;2022-09-17T07:47:20;19.70;;;17.95;;
63772;SDS011;49919;53.612;55.898;2022-09-17T07:48:50;18.63;;;16.77;;
63772;SDS011;49919;53.612;55.898;2022-09-17T07:50:21;18.75;;;16.95;;
63772;SDS011;49919;53.612;55.898;2022-09-17T07:51:52;16.15;;;14.75;;
63772;SDS011;49919;53.612;55.898;2022-09-17T07:53:24;17.40;;;15.80;;
63772;SDS011;49919;53.612;55.898;2022-09-17T07:54:55;16.95;;;15.50;;
63772;SDS011;49919;53.612;55.898;2022-09-17T07:56:26;17.05;;;15.60;;
63772;SDS011;49919;53.612;55.898;2022-09-17T07:57:57;17.27;;;15.68;;
63772;SDS011;49919;53.612;55.898;2022-09-17T07:59:28;17.67;;;15.95;;
63772;SDS011;49919;53.612;55.898;2022-09-17T08:01:03;18.30;;;14.88;;
63772;SDS011;49919;53.612;55.898;2022-09-17T08:02:36;17.85;;;16.25;;
63772;SDS011;49919;53.612;55.898;2022-09-17T08:04:07;18.85;;;17.00;;
63772;SDS011;49919;53.612;55.898;2022-09-17T08:05:38;21.00;;;18.88;;
63772;SDS011;49919;53.612;55.898;2022-09-17T08:07:12;18.50;;;16.75;;
63772;SDS011;49919;53.612;55.898;2022-09-17T08:08:43;18.20;;;16.50;;
63772;SDS011;49919;53.612;55.898;2022-09-17T08:10:14;19.38;;;17.55;;
63772;SDS011;49919;53.612;55.898;2022-09-17T08:11:45;22.65;;;18.30;;
63772;SDS011;49919;53.612;55.898;2022-09-17T08:13:16;18.90;;;17.30;;
63772;SDS011;49919;53.612;55.898;2022-09-17T08:14:46;18.17;;;16.33;;
63772;SDS011;49919;53.612;55.898;2022-09-17T08:16:17;17.40;;;15.70;;
63772;SDS011;49919;53.612;55.898;2022-09-17T08:17:49;17.23;;;15.75;;
63772;SDS011;49919;53.612;55.898;2022-09-17T08:19:20;15.82;;;14.40;;
63772;SDS011;49919;53.612;55.898;2022-09-17T08:20:54;13.32;;;12.10;;
63772;SDS011;49919;53.612;55.898;2022-09-17T08:22:26;17.42;;;13.90;;
63772;SDS011;49919;53.612;55.898;2022-09-17T08:23:57;13.98;;;12.80;;
63772;SDS011;49919;53.612;55.898;2022-09-17T08:25:28;16.75;;;14.95;;
63772;SDS011;49919;53.612;55.898;2022-09-17T08:26:59;14.55;;;13.05;;
63772;SDS011;49919;53.612;55.898;2022-09-17T08:28:30;15.77;;;14.38;;
63772;SDS011;49919;53.612;55.898;2022-09-17T08:30:01;17.58;;;15.88;;
63772;SDS011;49919;53.612;55.898;2022-09-17T08:31:33;19.45;;;17.23;;
63772;SDS011;49919;53.612;55.898;2022-09-17T08:33:04;15.80;;;14.50;;
63772;SDS011;49919;53.612;55.898;2022-09-17T08:34:38;17.10;;;15.57;;
63772;SDS011;49919;53.612;55.898;2022-09-17T08:36:18;15.60;;;14.20;;
63772;SDS011;49919;53.612;55.898;2022-09-17T08:38:29;14.18;;;12.98;;
63772;SDS011;49919;53.612;55.898;2022-09-17T08:40:04;14.13;;;12.80;;
63772;SDS011;49919;53.612;55.898;2022-09-17T08:43:10;13.00;;;11.70;;
63772;SDS011;49919;53.612;55.898;2022-09-17T08:44:47;10.55;;;9.63;;
63772;SDS011;49919;53.612;55.898;2022-09-17T08:46:30;10.52;;;9.73;;
63772;SDS011;49919;53.612;55.898;2022-09-17T08:48:03;10.07;;;9.18;;
63772;SDS011;49919;53.612;55.898;2022-09-17T08:49:35;12.48;;;11.38;;
63772;SDS011;49919;53.612;55.898;2022-09-17T08:55:21;12.20;;;11.15;;
63772;SDS011;49919;53.612;55.898;2022-09-17T09:00:22;25.05;;;20.13;;
63772;SDS011;49919;53.612;55.898;2022-09-17T09:01:58;28.83;;;23.55;;
63772;SDS011;49919;53.612;55.898;2022-09-17T09:05:24;21.92;;;19.73;;
63772;SDS011;49919;53.612;55.898;2022-09-17T09:08:39;18.40;;;16.60;;
63772;SDS011;49919;53.612;55.898;2022-09-17T09:10:22;19.73;;;17.88;;
63772;SDS011;49919;53.612;55.898;2022-09-17T09:12:00;18.35;;;16.42;;
63772;SDS011;49919;53.612;55.898;2022-09-17T09:13:39;16.92;;;14.13;;
63772;SDS011;49919;53.612;55.898;2022-09-17T09:15:35;12.68;;;11.68;;
63772;SDS011;49919;53.612;55.898;2022-09-17T09:17:08;13.73;;;12.50;;
63772;SDS011;49919;53.612;55.898;2022-09-17T09:18:40;14.13;;;12.95;;
63772;SDS011;49919;53.612;55.898;2022-09-17T09:20:24;12.35;;;11.35;;
63772;SDS011;49919;53.612;55.898;2022-09-17T09:22:08;11.85;;;10.85;;
63772;SDS011;49919;53.612;55.898;2022-09-17T09:23:56;14.05;;;12.73;;
63772;SDS011;49919;53.612;55.898;2022-09-17T09:25:31;14.18;;;13.15;;
63772;SDS011;49919;53.612;55.898;2022-09-17T09:34:38;12.25;;;11.15;;
63772;SDS011;49919;53.612;55.898;2022-09-17T09:36:10;12.40;;;11.45;;
63772;SDS011;49919;53.612;55.898;2022-09-17T09:38:09;12.90;;;11.85;;
63772;SDS011;49919;53.612;55.898;2022-09-17T09:39:45;11.55;;;10.20;;
63772;SDS011;49919;53.612;55.898;2022-09-17T09:41:30;12.85;;;11.77;;
63772;SDS011;49919;53.612;55.898;2022-09-17T09:45:15;13.45;;;12.48;;
63772;SDS011;49919;53.612;55.898;2022-09-17T09:48:52;14.82;;;13.73;;
63772;SDS011;49919;53.612;55.898;2022-09-17T09:51:02;20.20;;;18.30;;
63772;SDS011;49919;53.612;55.898;2022-09-17T09:53:09;19.10;;;17.30;;
63772;SDS011;49919;53.612;55.898;2022-09-17T09:55:30;18.83;;;17.20;;
63772;SDS011;49919;53.612;55.898;2022-09-17T09:56:59;18.42;;;16.73;;
63772;SDS011;49919;53.612;55.898;2022-09-17T09:58:37;15.30;;;14.07;;
63772;SDS011;49919;53.612;55.898;2022-09-17T10:02:01;12.63;;;11.32;;
63772;SDS011;49919;53.612;55.898;2022-09-17T10:03:32;12.00;;;10.90;;
63772;SDS011;49919;53.612;55.898;2022-09-17T10:05:09;12.88;;;11.88;;
63772;SDS011;49919;53.612;55.898;2022-09-17T10:06:41;10.48;;;9.68;;
63772;SDS011;49919;53.612;55.898;2022-09-17T10:08:12;10.48;;;9.52;;
63772;SDS011;49919;53.612;55.898;2022-09-17T10:09:44;9.93;;;9.27;;
63772;SDS011;49919;53.612;55.898;2022-09-17T10:11:22;11.38;;;10.23;;
63772;SDS011;49919;53.612;55.898;2022-09-17T10:13:05;10.70;;;9.90;;
63772;SDS011;49919;53.612;55.898;2022-09-17T10:14:37;8.95;;;8.35;;
63772;SDS011;49919;53.612;55.898;2022-09-17T10:18:10;10.80;;;9.77;;
63772;SDS011;49919;53.612;55.898;2022-09-17T10:23:04;22.13;;;16.92;;
63772;SDS011;49919;53.612;55.898;2022-09-17T10:24:37;17.05;;;15.18;;
63772;SDS011;49919;53.612;55.898;2022-09-17T10:26:18;41.85;;;27.70;;
63772;SDS011;49919;53.612;55.898;2022-09-17T10:27:51;23.58;;;19.83;;